South Windham, Maine
Current Conditions -  °F | °C
As of 4:51 PM on Friday 31 Oct 2014 (Local Time) from KPWM Reporting Station
Scattered Clouds Scattered Clouds  
Wind Chill: 49°   Ceiling: Unl
Heat Index: 49°   Visibility: 10mi
Dew Point: 32°   Wind: 3mph
Humidity: 52%   Direction: 120°ESE
Pressure: 30.02"   Gusts: NA
Location:  43.74°N, 70.42°W
Report Text: KPWM 312051Z 12003KT 10SM SCT050 SCT150 09/00 A3002 RMK AO2 SLP165 T00940000 50000
Loading
Personal Weather Stations






























Interactive Weather Map
Tropical Storm Tracking
New forecast layout! Learn more

10-Day Weather Forecast

Advertisements
Track Severe Weather on mobile